Time;durP1;ratioP1;P1;durP2;ratioP2;P2;SDS_P1;SDS_P2;PMS_P1;PMS_P2;Temp;Humidity;BMP_temperature;BMP_pressure;BME280_temperature;BME280_humidity;BME280_pressure;Samples;Min_cycle;Max_cycle;Signal;HPM_P1;HPM_P2
2022/04/06 00:01:10;;;;;;;11.87;8.00;;;;;;;6.25;67.38;96654.28;6273049;22;20194;-95
2022/04/06 00:03:38;;;;;;;11.93;7.30;;;;;;;6.22;67.06;96669.78;6275008;22;20194;-94
2022/04/06 00:06:05;;;;;;;12.03;7.83;;;;;;;6.17;68.32;96688.84;6274324;22;20172;-96
2022/04/06 00:08:34;;;;;;;14.60;8.30;;;;;;;6.20;69.23;96728.13;6273747;22;20233;-93
2022/04/06 00:11:02;;;;;;;11.57;8.03;;;;;;;6.14;69.25;96705.22;6274022;22;20605;-95
2022/04/06 00:13:31;;;;;;;12.67;8.40;;;;;;;6.26;69.22;96707.38;6274607;22;20209;-94
2022/04/06 00:16:00;;;;;;;13.20;9.10;;;;;;;6.42;68.91;96729.09;6272394;22;20164;-90
2022/04/06 00:18:27;;;;;;;12.00;8.97;;;;;;;6.16;68.88;96734.28;6269755;22;20176;-87
2022/04/06 00:20:54;;;;;;;12.93;8.60;;;;;;;6.00;70.12;96735.66;6275771;22;20254;-92
2022/04/06 00:23:21;;;;;;;12.50;8.97;;;;;;;5.81;70.45;96744.84;6272023;22;20182;-93
2022/04/06 00:25:49;;;;;;;13.47;9.63;;;;;;;5.74;70.19;96740.78;6276970;22;20170;-96
2022/04/06 00:28:18;;;;;;;13.63;10.33;;;;;;;5.73;69.91;96736.53;6279378;22;20174;-89
2022/04/06 00:30:48;;;;;;;15.37;10.03;;;;;;;5.85;70.64;96740.47;6295858;22;20173;-95
2022/04/06 00:33:17;;;;;;;12.57;9.93;;;;;;;5.79;69.52;96679.81;6282813;22;20559;-96
2022/04/06 00:35:48;;;;;;;12.77;9.67;;;;;;;6.42;68.34;96747.09;6287425;22;20164;-90
2022/04/06 00:38:16;;;;;;;16.17;10.07;;;;;;;6.28;66.54;96699.63;6280586;22;20529;-93
2022/04/06 00:40:44;;;;;;;14.40;9.70;;;;;;;6.49;66.95;96709.16;6224828;22;20175;-95
2022/04/06 00:43:14;;;;;;;12.50;9.50;;;;;;;6.74;65.66;96747.72;6277577;22;20178;-87
2022/04/06 00:45:43;;;;;;;12.80;9.23;;;;;;;6.64;66.76;96744.63;6296902;22;20170;-90
2022/04/06 00:48:11;;;;;;;14.67;9.00;;;;;;;6.57;66.84;96746.56;6298511;22;20177;-89
2022/04/06 00:50:39;;;;;;;13.97;8.70;;;;;;;6.40;66.61;96724.91;6294615;22;20202;-87
2022/04/06 00:53:07;;;;;;;12.47;8.83;;;;;;;6.11;66.72;96691.63;6296530;22;20198;-89
2022/04/06 00:55:40;;;;;;;11.70;7.83;;;;;;;6.38;67.13;96745.53;6288974;22;20173;-96
2022/04/06 00:58:10;;;;;;;9.97;7.97;;;;;;;6.43;66.25;96753.91;6248468;22;20174;-92
2022/04/06 01:00:37;;;;;;;11.03;7.77;;;;;;;6.38;66.73;96730.09;6277500;22;20168;-96
2022/04/06 01:03:04;;;;;;;9.97;7.30;;;;;;;6.14;66.45;96712.09;6274793;22;20174;-93
2022/04/06 01:05:32;;;;;;;10.67;7.80;;;;;;;6.15;67.20;96745.47;6279049;22;20168;-95
2022/04/06 01:08:02;;;;;;;10.67;7.87;;;;;;;5.84;69.17;96749.91;6247383;22;20158;-89
2022/04/06 01:10:31;;;;;;;11.37;9.10;;;;;;;5.60;69.52;96722.41;6250309;22;20162;-90
2022/04/06 01:12:59;;;;;;;11.90;8.27;;;;;;;5.62;69.89;96736.03;6301960;22;20178;-89
2022/04/06 01:15:31;;;;;;;10.57;8.17;;;;;;;5.66;70.42;96738.47;6299510;22;20214;-87
2022/04/06 01:17:59;;;;;;;11.00;8.37;;;;;;;5.36;70.61;96689.75;6299210;22;20230;-90
2022/04/06 01:20:26;;;;;;;9.63;7.50;;;;;;;5.74;70.64;96746.78;6295696;22;20184;-88
2022/04/06 01:22:53;;;;;;;12.30;8.40;;;;;;;5.79;69.52;96723.47;6271706;22;20193;-88
2022/04/06 01:25:26;;;;;;;10.77;7.90;;;;;;;5.81;69.38;96708.03;6287287;22;20244;-95
2022/04/06 01:27:54;;;;;;;13.13;8.47;;;;;;;6.12;68.32;96735.25;6295732;22;20208;-89
2022/04/06 01:30:21;;;;;;;13.77;8.17;;;;;;;6.09;68.09;96719.97;6294226;22;20170;-89
2022/04/06 01:32:48;;;;;;;11.53;7.53;;;;;;;5.89;69.16;96748.06;6293044;22;20193;-89
2022/04/06 01:35:18;;;;;;;9.60;8.27;;;;;;;5.60;69.88;96719.84;6262096;22;20173;-88
2022/04/06 01:37:44;;;;;;;11.87;8.70;;;;;;;5.59;70.87;96738.69;6291842;22;20240;-91
2022/04/06 01:40:12;;;;;;;13.43;7.53;;;;;;;5.15;70.58;96645.09;6293468;22;20168;-91
2022/04/06 01:42:40;;;;;;;10.37;8.33;;;;;;;5.54;71.24;96749.09;6293559;22;20163;-89
2022/04/06 01:45:08;;;;;;;13.57;8.87;;;;;;;5.43;72.10;96740.06;6274258;22;20177;-86
2022/04/06 01:47:36;;;;;;;10.83;6.60;;;;;;;5.36;72.04;96749.66;6294108;22;20170;-95
2022/04/06 01:52:50;;;;;;;10.23;7.27;;;;;;;4.93;71.83;96711.59;6298273;22;20166;-95
2022/04/06 01:55:17;;;;;;;9.53;6.80;;;;;;;4.99;72.42;96745.69;6280213;22;20225;-96
2022/04/06 01:57:45;;;;;;;8.07;7.00;;;;;;;4.97;72.44;96757.72;6273645;22;20168;-96
2022/04/06 02:00:17;;;;;;;10.67;7.70;;;;;;;4.66;73.34;96722.63;6246605;22;20164;-96
2022/04/06 02:02:48;;;;;;;10.80;7.43;;;;;;;4.79;73.48;96759.91;6274150;22;20164;-95
2022/04/06 02:05:16;;;;;;;12.90;8.13;;;;;;;4.75;73.88;96752.31;6269770;22;20673;-86
2022/04/06 02:07:47;;;;;;;13.13;9.10;;;;;;;4.54;73.76;96735.78;6280887;22;20160;-94
2022/04/06 02:10:15;;;;;;;11.43;8.33;;;;;;;4.33;74.04;96707.34;6274624;22;20231;-96
2022/04/06 02:12:45;;;;;;;11.13;8.57;;;;;;;4.53;74.35;96752.06;6276315;22;20168;-95
2022/04/06 02:15:15;;;;;;;12.00;8.33;;;;;;;4.52;73.85;96750.38;6278379;22;20189;-93
2022/04/06 02:17:43;;;;;;;10.90;8.10;;;;;;;4.48;74.56;96759.03;6272262;22;20169;-93
2022/04/06 02:20:11;;;;;;;10.50;7.47;;;;;;;4.40;74.11;96732.75;6278526;22;20220;-90
2022/04/06 02:22:42;;;;;;;12.00;8.57;;;;;;;4.56;73.99;96757.09;6285506;22;20184;-85
2022/04/06 02:25:12;;;;;;;14.50;7.87;;;;;;;4.52;74.55;96754.66;6282582;22;20170;-87
2022/04/06 02:27:48;;;;;;;10.40;7.53;;;;;;;4.46;73.38;96719.78;6291467;22;20222;-88
2022/04/06 02:30:17;;;;;;;11.03;8.47;;;;;;;4.84;73.15;96750.31;6278005;22;20243;-89
2022/04/06 02:32:45;;;;;;;9.63;7.93;;;;;;;4.68;72.68;96713.16;6283485;22;20752;-86
2022/04/06 02:35:14;;;;;;;9.90;7.40;;;;;;;4.92;72.21;96740.69;6284413;22;20560;-85
2022/04/06 02:37:44;;;;;;;9.90;7.20;;;;;;;5.08;72.04;96750.53;6280008;22;20165;-92
2022/04/06 02:40:14;;;;;;;12.50;7.60;;;;;;;4.97;72.28;96742.31;6276108;22;20165;-84
2022/04/06 02:42:44;;;;;;;8.80;6.67;;;;;;;4.82;72.07;96708.50;6276318;22;20174;-92
2022/04/06 02:45:12;;;;;;;9.20;7.13;;;;;;;5.14;71.47;96751.19;6221777;22;20530;-91
2022/04/06 02:47:45;;;;;;;9.10;6.63;;;;;;;5.31;70.71;96755.84;6271627;22;20199;-87
2022/04/06 02:50:12;;;;;;;10.70;6.97;;;;;;;5.32;70.42;96765.19;6274015;22;20590;-84
2022/04/06 02:52:39;;;;;;;8.33;6.63;;;;;;;5.12;70.48;96731.59;6271759;22;20171;-92
2022/04/06 02:55:09;;;;;;;8.60;7.07;;;;;;;5.10;70.55;96731.63;6273368;22;20254;-86
2022/04/06 02:57:37;;;;;;;9.83;6.47;;;;;;;5.37;70.20;96760.78;6279117;22;20244;-87
2022/04/06 03:00:05;;;;;;;10.10;6.83;;;;;;;5.33;70.17;96766.91;6278728;22;20174;-89
2022/04/06 03:02:35;;;;;;;12.00;7.37;;;;;;;5.38;69.90;96771.00;6246747;22;20192;-87
2022/04/06 03:05:06;;;;;;;10.47;7.17;;;;;;;5.17;69.65;96742.56;6272507;22;20177;-91
2022/04/06 03:07:34;;;;;;;11.00;7.70;;;;;;;5.23;70.58;96773.19;6276617;22;20161;-87
2022/04/06 03:10:02;;;;;;;9.77;6.33;;;;;;;5.11;70.05;96741.00;6252356;22;20196;-87
2022/04/06 03:12:30;;;;;;;10.70;7.30;;;;;;;5.24;69.61;96726.09;6277804;22;20169;-91
2022/04/06 03:14:59;;;;;;;10.73;6.87;;;;;;;5.34;69.29;96745.44;6275815;22;20201;-87
2022/04/06 03:17:29;;;;;;;8.27;6.83;;;;;;;5.53;68.87;96774.84;6275904;22;20260;-85
2022/04/06 03:19:57;;;;;;;9.80;6.53;;;;;;;5.48;69.82;96777.53;6275518;22;20168;-89
2022/04/06 03:22:24;;;;;;;8.47;6.27;;;;;;;5.46;69.25;96789.56;6280595;22;20162;-85
2022/04/06 03:24:51;;;;;;;11.47;7.00;;;;;;;5.42;69.53;96792.31;6282036;22;20173;-91
2022/04/06 03:27:18;;;;;;;9.50;6.97;;;;;;;5.36;70.13;96779.63;6273027;22;20229;-87
2022/04/06 03:29:46;;;;;;;10.00;7.47;;;;;;;5.32;69.86;96780.59;6275645;22;20226;-87
2022/04/06 03:32:14;;;;;;;9.70;7.27;;;;;;;5.22;70.02;96763.78;6277130;22;20173;-89
2022/04/06 03:34:42;;;;;;;7.43;6.57;;;;;;;5.24;69.95;96772.28;6249469;22;20240;-94
2022/04/06 03:37:09;;;;;;;9.30;6.73;;;;;;;5.37;69.45;96786.47;6278453;22;20168;-92
2022/04/06 03:39:36;;;;;;;11.00;8.13;;;;;;;4.85;70.13;96758.88;6285300;22;20169;-93
2022/04/06 03:42:04;;;;;;;12.03;8.07;;;;;;;4.57;71.60;96774.19;6281433;22;20166;-94
2022/04/06 03:44:33;;;;;;;10.50;8.53;;;;;;;4.43;72.85;96783.13;6289111;22;20169;-88
2022/04/06 03:47:00;;;;;;;12.77;7.50;;;;;;;4.10;73.12;96746.38;6279287;22;20640;-93
2022/04/06 03:49:31;;;;;;;15.27;7.50;;;;;;;4.28;73.93;96797.16;6278661;22;20813;-88
2022/04/06 03:51:59;;;;;;;8.50;7.57;;;;;;;4.22;74.08;96805.00;6249082;22;20193;-86
2022/04/06 03:54:26;;;;;;;12.17;7.73;;;;;;;4.08;74.26;96778.88;6275936;22;20196;-89
2022/04/06 03:56:54;;;;;;;10.37;8.33;;;;;;;4.37;73.54;96804.59;6276839;22;20215;-87
2022/04/06 03:59:21;;;;;;;12.20;7.90;;;;;;;4.40;73.15;96803.69;6279166;22;20199;-87
2022/04/06 04:01:48;;;;;;;12.97;8.70;;;;;;;4.28;72.93;96778.38;6285662;22;20254;-87
2022/04/06 04:04:17;;;;;;;11.57;7.80;;;;;;;4.39;72.93;96802.03;6289459;22;20160;-84
2022/04/06 04:06:44;;;;;;;11.87;8.37;;;;;;;4.40;72.28;96778.91;6290568;22;20164;-81
2022/04/06 04:09:11;;;;;;;14.20;7.50;;;;;;;3.99;73.00;96721.03;6289339;22;20226;-82
2022/04/06 04:11:38;;;;;;;12.53;8.23;;;;;;;4.19;73.53;96776.03;6286154;22;20161;-87
2022/04/06 04:14:08;;;;;;;11.37;8.37;;;;;;;4.35;73.84;96795.28;6296997;22;20200;-86
2022/04/06 04:16:35;;;;;;;13.10;8.27;;;;;;;4.55;74.10;96808.44;6295690;22;20216;-87
2022/04/06 04:19:03;;;;;;;11.77;7.17;;;;;;;4.64;73.19;96811.59;6287375;22;20154;-90
2022/04/06 04:21:35;;;;;;;13.17;7.77;;;;;;;4.46;72.99;96776.19;6296551;22;20173;-89
2022/04/06 04:24:08;;;;;;;10.90;7.67;;;;;;;4.47;72.84;96771.91;6271322;22;20165;-92
2022/04/06 04:26:36;;;;;;;10.70;7.97;;;;;;;4.67;72.05;96785.88;6274651;22;20157;-86
2022/04/06 04:29:04;;;;;;;12.83;7.57;;;;;;;4.93;71.87;96801.41;6270265;22;20157;-87
2022/04/06 04:31:32;;;;;;;9.83;7.27;;;;;;;4.84;70.75;96790.56;6270504;22;20189;-89
2022/04/06 04:34:01;;;;;;;11.40;7.83;;;;;;;5.05;71.65;96813.03;6269237;22;20542;-87
2022/04/06 04:36:29;;;;;;;11.37;7.23;;;;;;;5.06;71.77;96798.47;6271316;22;20173;-89
2022/04/06 04:39:00;;;;;;;10.77;6.83;;;;;;;5.39;71.17;96818.06;6271070;22;20712;-92
2022/04/06 04:41:29;;;;;;;12.97;7.20;;;;;;;5.65;69.28;96820.69;6270891;22;20175;-88
2022/04/06 04:43:56;;;;;;;9.17;7.23;;;;;;;5.75;69.59;96824.66;6273796;22;20168;-88
2022/04/06 04:46:23;;;;;;;12.40;7.73;;;;;;;5.93;69.61;96823.31;6271814;22;20161;-89
2022/04/06 04:48:51;;;;;;;12.13;7.17;;;;;;;6.23;68.03;96820.59;6273124;22;20196;-87
2022/04/06 04:51:21;;;;;;;8.90;6.23;;;;;;;6.44;67.18;96806.19;6271157;22;20199;-88
2022/04/06 04:53:48;;;;;;;13.67;7.47;;;;;;;6.85;66.95;96836.50;6271462;22;20201;-88
2022/04/06 04:56:16;;;;;;;8.60;6.50;;;;;;;7.08;65.20;96835.72;6244912;22;20253;-87
2022/04/06 04:58:44;;;;;;;7.73;6.23;;;;;;;7.31;64.07;96828.88;6244682;22;20554;-88
2022/04/06 05:01:12;;;;;;;11.87;6.40;;;;;;;7.49;63.16;96829.91;6272200;22;20169;-88
2022/04/06 05:03:42;;;;;;;8.80;5.97;;;;;;;7.60;62.57;96852.72;6270301;22;20159;-89
2022/04/06 05:06:09;;;;;;;8.47;6.37;;;;;;;7.32;64.09;96816.81;6272900;22;20187;-92
2022/04/06 05:08:36;;;;;;;10.83;6.27;;;;;;;7.46;63.96;96858.34;6268622;22;20172;-87
2022/04/06 05:11:03;;;;;;;14.87;6.70;;;;;;;7.52;64.31;96857.31;6271041;22;20168;-88
2022/04/06 05:13:34;;;;;;;11.10;6.43;;;;;;;7.69;63.86;96827.41;6271716;22;20160;-87
2022/04/06 05:16:01;;;;;;;10.50;6.70;;;;;;;7.93;62.04;96856.59;6296305;22;20176;-85
2022/04/06 05:18:30;;;;;;;10.73;6.83;;;;;;;8.07;62.70;96857.75;6297925;22;20145;-86
2022/04/06 05:20:57;;;;;;;9.47;6.57;;;;;;;8.05;62.35;96875.03;6248864;22;20183;-87
2022/04/06 05:23:26;;;;;;;8.43;5.80;;;;;;;8.16;62.55;96870.25;6277432;22;20187;-86
2022/04/06 05:25:58;;;;;;;7.50;6.07;;;;;;;8.01;61.68;96873.47;6248719;22;20204;-88
2022/04/06 05:28:27;;;;;;;9.00;6.67;;;;;;;7.87;62.32;96860.22;6273561;22;20175;-88
2022/04/06 05:30:55;;;;;;;9.10;6.27;;;;;;;8.04;62.39;96860.44;6272056;22;20208;-87
2022/04/06 05:33:23;;;;;;;11.03;6.70;;;;;;;8.28;62.48;96868.16;6269857;22;20168;-87
2022/04/06 05:35:51;;;;;;;9.67;6.73;;;;;;;8.62;61.85;96876.22;6270664;22;20196;-86
2022/04/06 05:38:20;;;;;;;11.93;7.27;;;;;;;8.55;62.36;96885.13;6270905;22;20176;-88
2022/04/06 05:40:48;;;;;;;10.87;7.40;;;;;;;8.16;63.67;96869.44;6271631;22;20170;-86
2022/04/06 05:43:15;;;;;;;13.40;7.40;;;;;;;7.95;63.62;96865.97;6271014;22;20169;-87
2022/04/06 05:45:42;;;;;;;9.47;6.27;;;;;;;8.06;63.07;96889.56;6272204;22;20172;-86
2022/04/06 05:48:10;;;;;;;11.30;7.20;;;;;;;8.24;63.11;96875.97;6271857;22;20215;-88
2022/04/06 05:50:38;;;;;;;8.97;7.00;;;;;;;8.77;61.55;96893.66;6275888;22;20199;-90
2022/04/06 05:53:05;;;;;;;10.03;7.03;;;;;;;8.95;60.73;96882.56;6270877;22;20769;-92
2022/04/06 05:55:51;;;;;;;17.37;7.67;;;;;;;9.03;60.51;96883.94;6270487;22;20589;-87
2022/04/06 05:58:18;;;;;;;10.03;7.40;;;;;;;9.35;60.13;96890.31;6272647;22;20172;-87
2022/04/06 06:00:46;;;;;;;16.17;9.23;;;;;;;9.53;59.60;96874.00;6270693;22;20172;-86
2022/04/06 06:03:14;;;;;;;11.47;7.73;;;;;;;9.78;58.87;96884.94;6273830;22;20223;-86
2022/04/06 06:05:41;;;;;;;9.20;7.33;;;;;;;9.77;57.83;96891.00;6274241;22;20530;-93
2022/04/06 06:08:18;;;;;;;11.07;6.80;;;;;;;9.03;58.92;96800.44;6278742;22;20230;-95
2022/04/06 06:10:48;;;;;;;9.47;7.30;;;;;;;9.79;59.18;96875.41;6274219;22;20230;-87
2022/04/06 06:13:15;;;;;;;10.17;7.50;;;;;;;10.09;58.11;96889.53;6273496;22;20496;-85
2022/04/06 06:15:44;;;;;;;10.50;6.67;;;;;;;10.23;57.23;96894.09;6279751;22;20214;-88
2022/04/06 06:18:12;;;;;;;10.20;7.33;;;;;;;10.28;57.57;96840.38;6273060;22;20544;-89
2022/04/06 06:20:41;;;;;;;14.13;7.13;;;;;;;10.85;56.65;96867.78;6275478;22;20559;-84
2022/04/06 06:23:10;;;;;;;12.47;7.83;;;;;;;11.04;56.57;96863.34;6271795;22;20160;-87
2022/04/06 06:25:37;;;;;;;13.30;7.63;;;;;;;11.37;55.17;96883.19;6293096;22;20164;-90
2022/04/06 06:28:05;;;;;;;12.20;8.37;;;;;;;11.29;54.85;96856.84;6282236;22;20266;-86
2022/04/06 06:30:34;;;;;;;14.03;7.63;;;;;;;11.46;53.89;96866.34;6272390;22;20162;-88
2022/04/06 06:33:07;;;;;;;14.40;7.43;;;;;;;11.52;53.49;96865.19;6274882;22;20505;-86
2022/04/06 06:35:40;;;;;;;10.67;7.40;;;;;;;11.71;53.06;96860.72;6235623;22;20247;-91
2022/04/06 06:38:09;;;;;;;13.90;7.73;;;;;;;11.89;52.84;96867.56;6273295;22;20198;-90
2022/04/06 06:40:36;;;;;;;8.03;6.37;;;;;;;11.98;52.78;96885.22;6298382;22;20185;-90
2022/04/06 06:43:04;;;;;;;10.50;6.53;;;;;;;12.16;51.67;96879.00;6289527;22;20680;-92
2022/04/06 06:45:34;;;;;;;12.83;7.00;;;;;;;12.44;51.58;96876.59;6253041;22;20175;-87
2022/04/06 06:48:02;;;;;;;8.87;6.57;;;;;;;12.61;51.82;96876.47;6277551;22;20189;-91
2022/04/06 06:50:30;;;;;;;11.33;7.67;;;;;;;12.85;50.40;96885.50;6283727;22;20254;-90
2022/04/06 06:53:00;;;;;;;10.23;6.63;;;;;;;12.88;50.00;96861.09;6285478;22;20199;-95
2022/04/06 06:55:30;;;;;;;11.03;7.40;;;;;;;13.07;49.85;96891.16;6233062;22;20614;-87
2022/04/06 06:58:17;;;;;;;9.43;5.80;;;;;;;13.10;47.58;96868.50;6291374;22;20227;-90
2022/04/06 07:00:49;;;;;;;14.77;6.10;;;;;;;13.11;46.38;96854.59;6297977;22;20174;-89
2022/04/06 07:03:20;;;;;;;7.63;5.53;;;;;;;12.90;47.47;96825.47;6284410;22;20257;-91
2022/04/06 07:05:53;;;;;;;11.13;6.60;;;;;;;13.20;47.86;96874.84;6287990;22;20250;-90
2022/04/06 07:08:22;;;;;;;12.73;6.13;;;;;;;13.48;46.37;96880.06;6260978;22;20183;-93
2022/04/06 07:10:52;;;;;;;9.17;6.03;;;;;;;13.74;46.75;96893.22;6280695;22;20168;-93
2022/04/06 07:13:21;;;;;;;11.20;6.07;;;;;;;13.92;45.77;96885.19;6291810;22;20168;-85
2022/04/06 07:15:49;;;;;;;8.77;4.97;;;;;;;14.13;45.13;96884.72;6282406;22;20203;-95
2022/04/06 07:18:18;;;;;;;8.77;5.20;;;;;;;14.21;44.50;96866.00;6281676;22;20169;-92
2022/04/06 07:20:45;;;;;;;9.57;5.30;;;;;;;14.25;44.01;96873.53;6279659;22;20167;-94
2022/04/06 07:23:13;;;;;;;11.57;5.43;;;;;;;14.32;44.31;96879.22;6279832;22;20160;-88
2022/04/06 07:25:45;;;;;;;8.57;5.43;;;;;;;14.24;44.31;96890.06;6277123;22;20303;-91
2022/04/06 07:28:13;;;;;;;7.77;5.50;;;;;;;14.18;44.67;96877.44;6254809;22;20169;-92
2022/04/06 07:30:41;;;;;;;9.23;5.30;;;;;;;14.27;44.54;96897.72;6280500;22;20483;-94
2022/04/06 07:33:18;;;;;;;12.37;5.70;;;;;;;14.37;43.72;96871.94;6280540;22;20168;-92
2022/04/06 07:35:46;;;;;;;11.50;5.00;;;;;;;14.79;43.36;96905.69;6279777;22;20200;-93
2022/04/06 07:38:14;;;;;;;12.10;5.47;;;;;;;14.63;42.97;96858.91;6277379;22;20171;-95
2022/04/06 07:40:41;;;;;;;8.17;5.17;;;;;;;14.89;42.74;96885.06;6281466;22;20173;-92
2022/04/06 07:43:10;;;;;;;8.37;5.87;;;;;;;15.11;42.56;96898.38;6279228;22;20164;-96
2022/04/06 07:45:42;;;;;;;8.23;5.73;;;;;;;15.17;42.29;96872.72;6257426;22;20201;-94
2022/04/06 07:48:27;;;;;;;10.10;5.00;;;;;;;15.44;41.59;96890.94;6285710;22;20220;-87
2022/04/06 07:50:58;;;;;;;5.43;4.00;;;;;;;15.24;41.33;96849.66;6292630;22;20204;-89
2022/04/06 07:53:31;;;;;;;7.80;4.03;;;;;;;15.42;40.48;96895.38;6265103;22;20432;-93
2022/04/06 07:56:00;;;;;;;6.27;4.00;;;;;;;15.30;39.79;96893.59;6279462;22;20271;-92
2022/04/06 07:58:27;;;;;;;10.90;4.93;;;;;;;15.11;40.93;96859.25;6279357;22;20589;-94
2022/04/06 08:00:57;;;;;;;5.30;4.23;;;;;;;15.33;40.78;96865.53;6282412;22;20210;-95
2022/04/06 08:03:24;;;;;;;10.93;5.77;;;;;;;15.47;41.00;96880.31;6255765;22;20165;-93
2022/04/06 08:05:54;;;;;;;7.57;4.40;;;;;;;15.75;40.58;96894.91;6281188;22;20241;-94
2022/04/06 08:08:37;;;;;;;7.30;4.20;;;;;;;15.62;40.27;96892.28;6275462;22;20193;31
2022/04/06 08:11:08;;;;;;;4.90;4.20;;;;;;;15.38;40.38;96860.00;6189753;23;20216;-94
2022/04/06 08:13:37;;;;;;;6.27;4.33;;;;;;;15.72;40.70;96882.91;6163945;23;20185;-94
2022/04/06 08:16:05;;;;;;;6.43;3.90;;;;;;;15.42;40.39;96856.25;6191014;23;20198;-95
2022/04/06 08:18:42;;;;;;;8.03;3.60;;;;;;;15.21;40.81;96844.63;6192490;23;20193;-94
2022/04/06 08:21:10;;;;;;;6.40;3.67;;;;;;;15.47;40.44;96869.88;6164656;23;20171;-94
2022/04/06 08:23:39;;;;;;;11.50;7.50;;;;;;;15.64;40.23;96877.38;6164742;23;20639;-91
2022/04/06 08:26:09;;;;;;;8.73;4.50;;;;;;;15.91;40.18;96887.72;6188240;23;20240;-90
2022/04/06 08:28:36;;;;;;;5.33;3.97;;;;;;;15.92;39.34;96835.38;6187694;23;20218;-94
2022/04/06 08:31:05;;;;;;;5.30;4.10;;;;;;;16.40;38.88;96877.25;6186864;23;20565;-89
2022/04/06 08:33:32;;;;;;;8.33;4.60;;;;;;;16.24;38.45;96828.69;6189944;23;20163;-87
2022/04/06 08:36:04;;;;;;;8.43;4.50;;;;;;;16.55;38.33;96858.72;6187598;23;20208;-88
2022/04/06 08:38:32;;;;;;;7.40;4.20;;;;;;;16.77;37.79;96869.28;6187577;23;20559;-93
2022/04/06 08:41:00;;;;;;;5.47;4.23;;;;;;;16.80;36.98;96853.38;6135958;23;20191;-92
2022/04/06 08:43:27;;;;;;;4.63;3.50;;;;;;;16.65;36.76;96849.25;6183122;23;20174;-91
2022/04/06 08:45:56;;;;;;;4.53;3.23;;;;;;;16.75;36.58;96876.41;6184516;23;20168;-91
2022/04/06 08:48:29;;;;;;;5.20;3.90;;;;;;;16.79;36.61;96862.19;6181159;23;20172;-93
2022/04/06 08:51:03;;;;;;;6.47;4.10;;;;;;;17.08;35.56;96865.25;6183602;23;20175;-88
2022/04/06 08:53:38;;;;;;;3.13;2.83;;;;;;;16.65;34.88;96817.88;6155846;23;20214;-87
2022/04/06 08:56:08;;;;;;;4.77;3.20;;;;;;;16.74;34.03;96863.44;6158145;23;20207;-89
2022/04/06 08:58:35;;;;;;;5.10;3.03;;;;;;;16.68;33.59;96846.41;6157589;23;20612;-89
2022/04/06 09:01:04;;;;;;;8.53;4.03;;;;;;;16.91;34.88;96855.19;6158013;23;20868;-91
2022/04/06 09:03:34;;;;;;;5.73;3.83;;;;;;;17.26;34.22;96866.50;6157150;23;20172;-91
2022/04/06 09:06:10;;;;;;;4.87;3.77;;;;;;;17.30;33.17;96862.69;6130728;23;20177;-91
2022/04/06 09:08:44;;;;;;;8.47;4.50;;;;;;;17.13;33.29;96823.88;6181709;23;20169;-89
2022/04/06 09:11:22;;;;;;;6.73;3.50;;;;;;;17.12;33.53;96832.69;6186242;23;20628;-92
2022/04/06 09:13:58;;;;;;;5.87;4.47;;;;;;;17.19;34.17;96849.56;6163749;23;20527;-89
2022/04/06 09:16:32;;;;;;;8.10;3.67;;;;;;;17.37;33.39;96844.75;6184258;23;20261;-91
2022/04/06 09:19:09;;;;;;;4.43;3.30;;;;;;;17.51;32.36;96836.69;6211687;23;20164;-89
2022/04/06 09:21:46;;;;;;;3.20;2.77;;;;;;;17.59;32.42;96837.78;6212381;23;20163;-89
2022/04/06 09:24:19;;;;;;;5.67;2.80;;;;;;;17.38;32.64;96844.63;6184512;23;20274;-87
2022/04/06 09:27:01;;;;;;;4.37;3.57;;;;;;;17.27;32.85;96821.03;6187109;23;20514;-89
2022/04/06 09:29:29;;;;;;;6.93;3.37;;;;;;;17.52;32.19;96814.78;6185302;23;20259;-87
2022/04/06 09:32:10;;;;;;;4.83;3.43;;;;;;;17.82;29.20;96839.47;6210529;23;20198;-89
2022/04/06 09:35:00;;;;;;;3.30;2.27;;;;;;;17.89;28.58;96837.19;6192621;23;20225;-88
2022/04/06 09:37:31;;;;;;;3.90;2.40;;;;;;;17.80;28.45;96809.91;6202463;23;20194;-89
2022/04/06 09:40:08;;;;;;;4.83;3.00;;;;;;;17.81;28.94;96798.50;6196650;23;20181;-86
2022/04/06 09:42:36;;;;;;;5.97;3.87;;;;;;;17.94;29.88;96810.63;6198622;23;20168;-89
2022/04/06 09:47:58;;;;;;;7.03;3.67;;;;;;;18.32;29.26;96827.59;6214228;23;20239;-92
2022/04/06 09:50:30;;;;;;;5.50;3.00;;;;;;;18.34;29.33;96814.38;6181140;23;20206;-90
2022/04/06 09:52:58;;;;;;;3.50;2.80;;;;;;;17.41;30.31;96778.94;6212042;23;20609;-91
2022/04/06 09:55:26;;;;;;;3.57;3.23;;;;;;;17.92;30.13;96808.13;6212401;23;20257;-92
2022/04/06 09:57:58;;;;;;;4.50;3.17;;;;;;;18.15;30.15;96808.94;6212550;23;20183;-93
2022/04/06 10:00:30;;;;;;;5.57;3.17;;;;;;;18.07;30.11;96816.59;6185920;23;20176;-94
2022/04/06 10:03:11;;;;;;;6.27;3.20;;;;;;;17.98;30.39;96788.47;6188096;23;20191;-91
2022/04/06 10:05:40;;;;;;;4.60;3.13;;;;;;;17.93;30.79;96808.97;6213904;23;20169;-94
2022/04/06 10:08:09;;;;;;;5.70;2.70;;;;;;;17.84;30.14;96795.66;6185063;23;20173;-86
2022/04/06 10:10:47;;;;;;;3.30;2.70;;;;;;;17.96;30.01;96796.47;6211667;23;20211;-92
2022/04/06 10:13:17;;;;;;;5.30;2.97;;;;;;;18.11;30.05;96791.78;6186063;23;20640;-90
2022/04/06 10:16:10;;;;;;;5.80;3.40;;;;;;;18.12;30.45;96777.72;6208971;23;20203;-88
2022/04/06 10:18:52;;;;;;;4.50;3.07;;;;;;;18.46;29.74;96802.94;6224228;23;20172;-89
2022/04/06 10:21:53;;;;;;;9.47;3.30;;;;;;;18.26;29.77;96753.88;6212736;23;20179;-87
2022/04/06 10:24:52;;;;;;;4.90;2.50;;;;;;;18.64;29.24;96801.44;6209858;23;20606;-87
2022/04/06 10:27:28;;;;;;;8.13;3.07;;;;;;;18.47;29.37;96778.38;6183785;23;20506;-88
2022/04/06 10:30:14;;;;;;;3.73;3.30;;;;;;;18.84;29.63;96790.13;6184479;23;20181;-92
2022/04/06 10:32:45;;;;;;;4.17;2.53;;;;;;;18.78;29.14;96771.44;6216108;23;20166;-85
2022/04/06 10:35:33;;;;;;;4.20;2.20;;;;;;;18.64;29.13;96785.69;6198176;23;20551;-87
2022/04/06 10:38:05;;;;;;;3.43;2.20;;;;;;;18.62;29.07;96783.22;6229070;23;20188;-91
2022/04/06 10:40:47;;;;;;;7.13;3.00;;;;;;;18.80;29.16;96775.59;6189149;23;20176;-89
2022/04/06 10:43:34;;;;;;;4.23;2.53;;;;;;;18.80;29.14;96772.97;6214297;23;20321;-93
2022/04/06 10:46:08;;;;;;;6.07;2.80;;;;;;;18.56;29.19;96756.66;6214039;23;20598;-91
2022/04/06 10:49:15;;;;;;;4.73;2.50;;;;;;;18.25;30.54;96779.25;6187805;23;20169;-89
2022/04/06 10:51:56;;;;;;;6.30;2.70;;;;;;;18.11;30.51;96719.25;6207348;23;20234;-89
2022/04/06 10:54:39;;;;;;;3.83;2.40;;;;;;;18.75;29.75;96777.78;6185007;23;20216;-92
2022/04/06 10:57:07;;;;;;;4.13;2.80;;;;;;;18.90;29.73;96741.59;6188459;23;20268;-93
2022/04/06 10:59:40;;;;;;;3.20;2.33;;;;;;;18.71;30.38;96754.56;6185454;23;20170;-91
2022/04/06 11:02:18;;;;;;;3.07;2.60;;;;;;;18.87;31.19;96763.66;6211725;23;20181;-93
2022/04/06 11:04:47;;;;;;;6.80;2.70;;;;;;;18.96;31.22;96757.63;6212625;23;20199;-90
2022/04/06 11:10:32;;;;;;;3.27;2.30;;;;;;;19.27;30.78;96766.38;6138548;23;20206;-88
2022/04/06 11:13:06;;;;;;;6.57;3.20;;;;;;;19.11;32.12;96753.72;6159543;23;20189;-86
2022/04/06 11:15:37;;;;;;;3.90;2.53;;;;;;;19.13;33.13;96735.22;6165937;23;20252;-91
2022/04/06 11:18:26;;;;;;;4.43;2.80;;;;;;;19.16;33.31;96711.34;6164871;23;20167;-92
2022/04/06 11:21:01;;;;;;;4.87;3.03;;;;;;;19.05;32.02;96679.91;6188520;23;20178;-89
2022/04/06 11:23:32;;;;;;;3.60;2.40;;;;;;;19.06;33.03;96713.09;6185784;23;20166;-92
2022/04/06 11:25:59;;;;;;;6.50;3.90;;;;;;;19.28;33.25;96739.16;6182448;23;20170;-93
2022/04/06 11:28:27;;;;;;;8.70;3.87;;;;;;;18.89;33.97;96708.41;6157052;23;20181;-89
2022/04/06 11:30:56;;;;;;;3.87;2.90;;;;;;;18.77;35.41;96744.41;6156065;23;20175;-92
2022/04/06 11:33:38;;;;;;;9.37;3.00;;;;;;;19.21;34.77;96749.34;6159015;23;20551;-91
2022/04/06 11:36:19;;;;;;;3.73;2.80;;;;;;;19.03;33.98;96708.91;6181835;23;20210;-93
2022/04/06 11:38:51;;;;;;;4.13;3.10;;;;;;;19.07;33.76;96718.19;6155684;23;20261;-93
2022/04/06 11:41:22;;;;;;;3.93;3.13;;;;;;;18.98;34.30;96723.41;6156661;23;20225;-92
2022/04/06 11:43:51;;;;;;;3.07;2.77;;;;;;;18.82;35.47;96700.22;6135481;23;20177;-93
2022/04/06 11:46:20;;;;;;;11.20;3.90;;;;;;;19.23;35.38;96694.91;6184075;23;20218;-90
2022/04/06 11:48:49;;;;;;;3.40;2.90;;;;;;;19.39;34.70;96697.91;6182374;23;20248;-92
2022/04/06 11:51:17;;;;;;;3.97;2.93;;;;;;;19.24;34.79;96720.22;6188246;23;20233;-90
2022/04/06 11:53:45;;;;;;;3.40;2.80;;;;;;;19.00;34.68;96709.16;6184074;23;20176;-92
2022/04/06 11:56:22;;;;;;;4.20;2.90;;;;;;;19.09;34.64;96679.53;6155620;23;20566;-91
2022/04/06 11:58:55;;;;;;;4.43;2.60;;;;;;;19.19;34.25;96683.00;6183048;23;20176;-93